WetterOnline ( http://www.wetteronline.de )

Wetter aktuell Heidelberg

Aktuelles Wetter: Mannheim (100m)

6-stündlich | Neueste Meldungen
Ortszeit Temperatur Wetter
So, 20.01. 1:00 -3.6° C wolkenlos
Sa, 19.01. 19:00 -1.3° C fast wolkenlos
Sa, 19.01. 13:00 3.0° C wolkenlos
Sa, 19.01. 7:00 -3.5° C bedeckt
Sa, 19.01. 1:00 -0.1° C bedeckt
Fr, 18.01. 19:00 1.2° C bedeckt
Fr, 18.01. 13:00 3.6° C wolkig
Fr, 18.01. 7:00 2.1° C bedeckt
Ortszeit Temperatur Wetter
So, 20.01. 2:10 -5.2° C wolkenlos
So, 20.01. 2:00 -4.2° C leicht bewölkt
So, 20.01. 1:50 -4.2° C leicht bewölkt
So, 20.01. 1:40 -4.2° C wolkig
So, 20.01. 1:30 -3.9° C leicht bewölkt
So, 20.01. 1:20 -3.9° C leicht bewölkt
So, 20.01. 1:00 -3.6° C wolkenlos
So, 20.01. 0:30 -3.5° C leicht bewölkt
So, 20.01. 0:00 -3.1° C fast wolkenlos
Sa, 19.01. 23:30 -3.2° C bedeckt
Ortszeit Relative Feuchte Sichtweite
So, 20.01. 1:00 83% 7 km
Sa, 19.01. 19:00 76% 12 km
Sa, 19.01. 13:00 55% 30 km
Sa, 19.01. 7:00 85% 26 km
Sa, 19.01. 1:00 75% 45 km
Fr, 18.01. 19:00 78% 25 km
Fr, 18.01. 13:00 65% 30 km
Fr, 18.01. 7:00 78% 30 km
Ortszeit Relative Feuchte Sichtweite
So, 20.01. 2:10 90% -
So, 20.01. 2:00 86% 7 km
So, 20.01. 1:50 86% -
So, 20.01. 1:40 86% -
So, 20.01. 1:30 85% 7 km
So, 20.01. 1:20 85% -
So, 20.01. 1:00 83% 7 km
So, 20.01. 0:30 82% 8 km
So, 20.01. 0:00 81% 8 km
Sa, 19.01. 23:30 83% 8 km
Ortszeit Niederschlagsmenge Niederschlagsart
So, 20.01. 1:00 0.0 l/m2 in 6 Std. -
Sa, 19.01. 19:00 0.0 l/m2 in 12 Std. -
Sa, 19.01. 13:00 0.0 l/m2 in 6 Std. -
Sa, 19.01. 7:00 0.0 l/m2 in 12 Std. -
Sa, 19.01. 1:00 0.0 l/m2 in 6 Std. -
Fr, 18.01. 19:00 0.4 l/m2 in 12 Std. -
Fr, 18.01. 13:00 0.4 l/m2 in 6 Std. Schnee, Sprühregen
Fr, 18.01. 7:00 0.1 l/m2 in 12 Std. Schnee
Ortszeit Niederschlagsmenge Niederschlagsart
So, 20.01. 2:10 keine Meldung -
So, 20.01. 2:00 0.0 l/m2 in 1 Std. -
So, 20.01. 1:50 keine Meldung -
So, 20.01. 1:40 keine Meldung -
So, 20.01. 1:30 0.0 l/m2 in 1 Std. -
So, 20.01. 1:20 keine Meldung -
So, 20.01. 1:00 0.0 l/m2 in 1 Std. -
So, 20.01. 0:30 0.0 l/m2 in 1 Std. -
So, 20.01. 0:00 0.0 l/m2 in 1 Std. -
Sa, 19.01. 23:30 0.0 l/m2 in 1 Std. -
Ortszeit Stärke Spitze Richtung
km/h Bft. km/h Grad Sektor
So, 20.01. 1:00 7 2 14 30° NO
Sa, 19.01. 19:00 7 2 29 150° SO
Sa, 19.01. 13:00 4 1 7 130° SO
Sa, 19.01. 7:00 4 1 11 260° W
Sa, 19.01. 1:00 6 1 13 120° SO
Fr, 18.01. 19:00 4 1 14 50° NO
Fr, 18.01. 13:00 7 2 19 360° N
Fr, 18.01. 7:00 13 3 30 250° W
Ortszeit Stärke Spitze Richtung
km/h Bft. km/h Grad Sektor
So, 20.01. 2:10 4 1 - 50° NO
So, 20.01. 2:00 4 1 7 40° NO
So, 20.01. 1:50 4 1 - 40° NO
So, 20.01. 1:40 4 1 - 30° NO
So, 20.01. 1:30 6 1 7 40° NO
So, 20.01. 1:20 6 1 - 40° NO
So, 20.01. 1:00 7 2 7 30° NO
So, 20.01. 0:30 6 1 7 30° NO
So, 20.01. 0:00 6 1 9 30° NO
Sa, 19.01. 23:30 4 1 7 40° NO
Ortszeit Untergrenze Bedeckung Gattung
total tief tief mittel hoch
So, 20.01. 1:00 - 0/8 0/8 - - -
Sa, 19.01. 19:00 1020 m 1/8 1/8 - - -
Sa, 19.01. 13:00 - 0/8 0/8 - - -
Sa, 19.01. 7:00 4200 m 8/8 8/8 - - -
Sa, 19.01. 1:00 4800 m 8/8 8/8 - - -
Fr, 18.01. 19:00 5100 m 8/8 8/8 - - -
Fr, 18.01. 13:00 750 m 7/8 7/8 - - -
Fr, 18.01. 7:00 750 m 8/8 8/8 - - -
Ortszeit Bedeckungsgrad in Achtel und Wolkenuntergrenze
So, 20.01. 2:10 keine Wolken
So, 20.01. 2:00 3(5700m)
So, 20.01. 1:50 3(5700m)
So, 20.01. 1:40 6(5700m)
So, 20.01. 1:30 3(5700m)
So, 20.01. 1:20 3(5700m)
So, 20.01. 1:00 keine Wolken
So, 20.01. 0:30 2(5400m)
So, 20.01. 0:00 1(840m)
Sa, 19.01. 23:30 8(810m)
Ortszeit Luftdruck NN (hPa) Tendenz (hPa in 3 Std.)
So, 20.01. 1:00 1015 - 0,5
Sa, 19.01. 19:00 1016 - 0,2
Sa, 19.01. 13:00 1017 - 1,7
Sa, 19.01. 7:00 1019 - 0,8
Sa, 19.01. 1:00 1020 - 0,2
Fr, 18.01. 19:00 1021 - 0,2
Fr, 18.01. 13:00 1021 + 0,3
Fr, 18.01. 7:00 1019 + 2,1
Ortszeit Luftdruck NN (hPa) Tendenz (hPa in 3 Std.)
So, 20.01. 2:10 1015 keine Meldung
So, 20.01. 2:00 1015 - 0,4
So, 20.01. 1:50 1015 keine Meldung
So, 20.01. 1:40 1015 keine Meldung
So, 20.01. 1:30 1015 - 0,5
So, 20.01. 1:20 1015 keine Meldung
So, 20.01. 1:00 1015 - 0,5
So, 20.01. 0:30 1015 - 0,3
So, 20.01. 0:00 1015 - 0,3
Sa, 19.01. 23:30 1015 - 0,3
Ortszeit Schneehöhe (cm)
So, 20.01. 1:00 0
Sa, 19.01. 19:00 0
Sa, 19.01. 13:00 0
Sa, 19.01. 7:00 0
Sa, 19.01. 1:00 0
Fr, 18.01. 19:00 0
Fr, 18.01. 13:00 0
Fr, 18.01. 7:00 0
Ortszeit Schneehöhe (cm)
So, 20.01. 2:10 0
So, 20.01. 2:00 0
So, 20.01. 1:50 0
So, 20.01. 1:40 0
So, 20.01. 1:30 0
So, 20.01. 1:20 0
So, 20.01. 1:00 0
So, 20.01. 0:30 0
So, 20.01. 0:00 0
Sa, 19.01. 23:30 0
Link zu dieser Seite / Seite empfehlen

Das Wetter in ...